Time;durP1;ratioP1;P1;durP2;ratioP2;P2;SDS_P1;SDS_P2;PMS_P1;PMS_P2;Temp;Humidity;BMP_temperature;BMP_pressure;BME280_temperature;BME280_humidity;BME280_pressure;Samples;Min_cycle;Max_cycle;Signal;HPM_P1;HPM_P2
2023/12/15 00:01:12;;;;;;;3.97;3.10;;;22.70;99.90;;;;;;4976081;28;20043;-47
2023/12/15 00:03:37;;;;;;;3.00;2.47;;;22.70;99.90;;;;;;4975052;28;20034;-46
2023/12/15 00:06:03;;;;;;;4.10;2.58;;;22.70;99.90;;;;;;4976139;28;20026;-47
2023/12/15 00:08:29;;;;;;;4.15;2.58;;;22.70;99.90;;;;;;4975973;28;20054;-46
2023/12/15 00:10:55;;;;;;;2.90;2.25;;;22.70;99.90;;;;;;4975908;28;20395;-46
2023/12/15 00:13:21;;;;;;;4.70;2.80;;;22.70;99.90;;;;;;4975813;28;20471;-47
2023/12/15 00:15:47;;;;;;;4.28;2.42;;;22.70;99.90;;;;;;4973415;28;20030;-46
2023/12/15 00:18:13;;;;;;;4.00;2.60;;;22.70;99.90;;;;;;4976022;28;20051;-46
2023/12/15 00:20:38;;;;;;;5.68;2.67;;;22.60;99.90;;;;;;4974475;28;20038;-47
2023/12/15 00:23:04;;;;;;;3.45;2.42;;;22.60;99.90;;;;;;4975675;28;20113;-47
2023/12/15 00:25:30;;;;;;;2.70;2.40;;;22.60;99.90;;;;;;4975468;28;20054;-47
2023/12/15 00:27:56;;;;;;;3.28;2.65;;;22.60;99.90;;;;;;4975417;28;20027;-47
2023/12/15 00:30:21;;;;;;;3.47;2.40;;;22.60;99.90;;;;;;4975386;28;20023;-46
2023/12/15 00:32:47;;;;;;;5.05;3.00;;;22.60;99.90;;;;;;4975527;28;20476;-47
2023/12/15 00:35:13;;;;;;;3.80;2.63;;;22.50;99.90;;;;;;4975682;28;20027;-48
2023/12/15 00:37:39;;;;;;;5.35;2.85;;;22.50;99.90;;;;;;4975437;28;20098;-47
2023/12/15 00:40:06;;;;;;;3.95;2.70;;;22.50;99.90;;;;;;4975300;28;20043;-47
2023/12/15 00:42:32;;;;;;;4.35;3.00;;;22.50;99.90;;;;;;4975289;28;20475;-47
2023/12/15 00:44:58;;;;;;;5.35;3.15;;;22.50;99.90;;;;;;4975277;28;20121;-47
2023/12/15 00:47:24;;;;;;;4.25;2.70;;;22.40;99.90;;;;;;4975277;28;20098;-47
2023/12/15 00:49:49;;;;;;;3.83;2.78;;;22.40;99.90;;;;;;4975208;28;20053;-46
2023/12/15 00:52:15;;;;;;;3.28;2.58;;;22.40;99.90;;;;;;4975244;28;20027;-47
2023/12/15 00:54:41;;;;;;;3.60;2.83;;;22.40;99.90;;;;;;4975362;28;20030;-47
2023/12/15 00:57:07;;;;;;;3.42;2.25;;;22.40;99.90;;;;;;4975071;28;20034;-46
2023/12/15 00:59:33;;;;;;;3.92;2.92;;;22.40;99.90;;;;;;4974865;28;20015;-46
2023/12/15 01:01:59;;;;;;;5.22;3.05;;;22.40;99.90;;;;;;4973700;28;20480;-46
2023/12/15 01:04:25;;;;;;;4.07;3.30;;;22.30;99.90;;;;;;4974917;28;20094;-46
2023/12/15 01:06:51;;;;;;;4.15;2.85;;;22.30;99.90;;;;;;4974923;28;20031;-46
2023/12/15 01:09:17;;;;;;;4.57;2.55;;;22.30;99.90;;;;;;4973684;28;20031;-48
2023/12/15 01:11:42;;;;;;;3.47;2.90;;;22.30;99.90;;;;;;4974963;28;20131;-46
2023/12/15 01:14:08;;;;;;;4.20;2.90;;;22.30;99.90;;;;;;4974747;28;20023;-46
2023/12/15 01:16:34;;;;;;;5.43;3.08;;;22.30;99.90;;;;;;4973405;28;20158;-46
2023/12/15 01:19:00;;;;;;;4.65;3.17;;;22.30;99.90;;;;;;4973460;28;20031;-46
2023/12/15 01:21:26;;;;;;;4.90;2.75;;;22.20;99.90;;;;;;4974534;28;20046;-47
2023/12/15 01:23:51;;;;;;;3.47;2.63;;;22.20;99.90;;;;;;4974590;28;20025;-46
2023/12/15 01:26:18;;;;;;;5.07;2.95;;;22.20;99.90;;;;;;4974175;28;20023;-46
2023/12/15 01:28:44;;;;;;;3.63;2.67;;;22.20;99.90;;;;;;4974709;28;20077;-46
2023/12/15 01:31:10;;;;;;;3.78;2.40;;;22.20;99.90;;;;;;4974540;28;20102;-46
2023/12/15 01:33:35;;;;;;;3.75;2.58;;;22.20;99.90;;;;;;4973018;28;20459;-46
2023/12/15 01:36:01;;;;;;;3.63;2.72;;;22.20;99.90;;;;;;4974113;28;20031;-47
2023/12/15 01:38:27;;;;;;;4.60;3.28;;;22.10;99.90;;;;;;4974246;28;20023;-47
2023/12/15 01:40:53;;;;;;;4.07;3.03;;;22.10;99.90;;;;;;4973964;28;20031;-47
2023/12/15 01:43:18;;;;;;;4.40;2.70;;;22.10;99.90;;;;;;4972854;28;20031;-47
2023/12/15 01:45:44;;;;;;;6.20;3.30;;;22.10;99.90;;;;;;4974195;28;20027;-47
2023/12/15 01:48:10;;;;;;;4.32;2.80;;;22.10;99.90;;;;;;4972830;28;20054;-47
2023/12/15 01:50:36;;;;;;;3.50;2.78;;;22.10;99.90;;;;;;4974094;28;20404;-46
2023/12/15 01:53:02;;;;;;;3.95;2.90;;;22.10;99.90;;;;;;4973922;28;20027;-46
2023/12/15 01:55:28;;;;;;;3.38;2.47;;;22.00;99.90;;;;;;4972630;28;20034;-46
2023/12/15 01:57:53;;;;;;;3.47;2.40;;;22.00;99.90;;;;;;4973937;28;20451;-47
2023/12/15 02:00:19;;;;;;;3.53;2.65;;;22.00;99.90;;;;;;4974346;28;20500;-46
2023/12/15 02:02:45;;;;;;;3.80;2.67;;;22.00;99.90;;;;;;4973993;28;20050;-46
2023/12/15 02:05:11;;;;;;;4.57;2.70;;;22.00;99.90;;;;;;4973790;28;20113;-47
2023/12/15 02:07:36;;;;;;;3.78;2.90;;;22.00;99.90;;;;;;4973811;28;20039;-47
2023/12/15 02:10:03;;;;;;;3.40;2.70;;;22.00;99.90;;;;;;4973651;28;20094;-47
2023/12/15 02:12:29;;;;;;;3.23;2.60;;;22.00;99.90;;;;;;4972365;28;20023;-47
2023/12/15 02:14:55;;;;;;;4.18;2.70;;;21.90;99.90;;;;;;4973650;28;20368;-47
2023/12/15 02:17:20;;;;;;;4.00;2.72;;;21.90;99.90;;;;;;4973688;28;20027;-47
2023/12/15 02:19:46;;;;;;;3.00;2.63;;;21.90;99.90;;;;;;4973639;28;20034;-47
2023/12/15 02:22:12;;;;;;;4.15;2.97;;;21.90;99.90;;;;;;4973372;28;20118;-46
2023/12/15 02:24:39;;;;;;;4.25;2.88;;;21.90;99.90;;;;;;4973487;28;20052;-47
2023/12/15 02:27:05;;;;;;;3.63;2.67;;;21.90;99.90;;;;;;4972408;28;20038;-52
2023/12/15 02:29:31;;;;;;;3.17;2.70;;;21.90;99.90;;;;;;4973437;28;20030;-46
2023/12/15 02:31:56;;;;;;;3.35;2.65;;;21.90;99.90;;;;;;4973513;28;20034;-47
2023/12/15 02:34:24;;;;;;;3.30;2.60;;;21.90;99.90;;;;;;4973509;28;20499;-47
2023/12/15 02:36:51;;;;;;;;;;;21.80;99.90;;;;;;4973543;28;20411;-47
2023/12/15 02:39:17;;;;;;;3.97;2.60;;;21.80;99.90;;;;;;4972818;28;19917;-46
2023/12/15 02:41:44;;;;;;;4.47;2.83;;;21.80;99.90;;;;;;4972205;28;20038;-47
2023/12/15 02:44:10;;;;;;;3.47;2.70;;;21.80;99.90;;;;;;4973213;28;20475;-47
2023/12/15 02:46:37;;;;;;;3.72;2.78;;;21.80;99.90;;;;;;4973514;28;20150;-47
2023/12/15 02:49:03;;;;;;;3.90;3.00;;;21.80;99.90;;;;;;4972025;28;20030;-47
2023/12/15 02:51:30;;;;;;;3.60;2.75;;;21.70;99.90;;;;;;4973231;28;20098;-47
2023/12/15 02:54:00;;;;;;;3.30;2.47;;;21.70;99.90;;;;;;4973299;28;20081;-47
2023/12/15 02:56:27;;;;;;;4.38;2.72;;;21.70;99.90;;;;;;4973184;28;20110;-47
2023/12/15 02:58:53;;;;;;;4.15;2.97;;;21.70;99.90;;;;;;4973154;28;20026;-47
2023/12/15 03:01:18;;;;;;;4.38;2.97;;;21.70;99.90;;;;;;4972143;28;20053;-47
2023/12/15 03:03:44;;;;;;;4.28;2.83;;;21.70;99.90;;;;;;4973122;28;20391;-48
2023/12/15 03:06:10;;;;;;;3.42;2.65;;;21.70;99.90;;;;;;4973074;28;20069;-48
2023/12/15 03:08:36;;;;;;;4.18;3.05;;;21.70;99.90;;;;;;4973375;28;20038;-48
2023/12/15 03:11:02;;;;;;;4.38;3.03;;;21.70;99.90;;;;;;4973072;28;20030;-48
2023/12/15 03:13:29;;;;;;;4.07;3.28;;;21.70;99.90;;;;;;4973315;28;20432;-45
2023/12/15 03:16:04;;;;;;;4.57;3.40;;;21.70;99.90;;;;;;4972890;28;20023;-48
2023/12/15 03:18:30;;;;;;;4.40;3.00;;;21.70;99.90;;;;;;4971712;28;20034;-47
2023/12/15 03:20:56;;;;;;;5.70;2.97;;;21.70;99.90;;;;;;4972888;28;20045;-46
2023/12/15 03:23:22;;;;;;;4.25;3.30;;;21.60;99.90;;;;;;4973043;28;20049;-46
2023/12/15 03:25:48;;;;;;;3.65;2.92;;;21.70;99.90;;;;;;4972857;28;20030;-47
2023/12/15 03:28:14;;;;;;;5.43;3.45;;;21.60;99.90;;;;;;4972969;28;20059;-46
2023/12/15 03:30:40;;;;;;;3.87;2.80;;;21.60;99.90;;;;;;4973000;28;20030;-47
2023/12/15 03:33:06;;;;;;;4.97;3.90;;;21.60;99.90;;;;;;4973056;28;20760;-46
2023/12/15 03:35:32;;;;;;;4.07;2.92;;;21.60;99.90;;;;;;4972697;28;20391;-46
2023/12/15 03:37:57;;;;;;;4.30;3.45;;;21.60;99.90;;;;;;4971643;28;20432;-46
2023/12/15 03:40:23;;;;;;;4.35;3.00;;;21.60;99.90;;;;;;4971374;28;20031;-46
2023/12/15 03:42:49;;;;;;;4.70;3.33;;;21.60;99.90;;;;;;4972700;28;20026;-47
2023/12/15 03:45:15;;;;;;;5.55;3.65;;;21.60;99.90;;;;;;4972800;28;20030;-46
2023/12/15 03:47:41;;;;;;;4.20;2.97;;;21.60;99.90;;;;;;4972996;28;20058;-45
2023/12/15 03:50:07;;;;;;;5.60;3.65;;;21.60;99.90;;;;;;4975377;28;20516;-46
2023/12/15 03:52:33;;;;;;;3.75;3.03;;;21.50;99.90;;;;;;4976054;28;20022;-46
2023/12/15 03:54:58;;;;;;;5.60;3.40;;;21.50;99.90;;;;;;4976131;28;20050;-47
2023/12/15 03:57:24;;;;;;;5.32;3.63;;;21.50;99.90;;;;;;4976072;28;20038;-46
2023/12/15 03:59:51;;;;;;;4.72;3.47;;;21.50;99.90;;;;;;4975981;28;20488;-46
2023/12/15 04:02:20;;;;;;;4.07;3.08;;;21.50;99.90;;;;;;4988462;23;20087;-49
2023/12/15 04:04:45;;;;;;;4.63;3.80;;;21.50;99.90;;;;;;4975816;28;20101;-50
2023/12/15 04:07:12;;;;;;;5.07;3.63;;;21.50;99.90;;;;;;4976075;28;20491;-50
2023/12/15 04:09:38;;;;;;;6.18;3.47;;;21.50;99.90;;;;;;4976182;28;20559;-49
2023/12/15 04:12:04;;;;;;;5.85;4.05;;;21.50;99.90;;;;;;4975815;28;20499;-50
2023/12/15 04:14:32;;;;;;;4.68;3.05;;;21.40;99.90;;;;;;4975678;28;20038;-51
2023/12/15 04:16:58;;;;;;;4.95;3.75;;;21.40;99.90;;;;;;4975667;28;20031;-52
2023/12/15 04:19:24;;;;;;;5.78;3.63;;;21.50;99.90;;;;;;4975681;28;20034;-51
2023/12/15 04:21:50;;;;;;;5.57;3.70;;;21.40;99.90;;;;;;4975674;28;20049;-50
2023/12/15 04:24:15;;;;;;;4.38;3.33;;;21.40;99.90;;;;;;4975606;28;20034;-50
2023/12/15 04:26:42;;;;;;;4.78;3.60;;;21.40;99.90;;;;;;4975738;28;20027;-50
2023/12/15 04:29:08;;;;;;;4.50;3.45;;;21.40;99.90;;;;;;4975460;28;20494;-51
2023/12/15 04:31:33;;;;;;;5.10;3.70;;;21.40;99.90;;;;;;4975396;28;20546;-50
2023/12/15 04:33:59;;;;;;;4.80;3.58;;;21.40;99.90;;;;;;4975462;28;20604;-50
2023/12/15 04:36:26;;;;;;;4.50;3.67;;;21.40;99.90;;;;;;4975446;28;20364;-50
2023/12/15 04:38:52;;;;;;;5.15;3.35;;;21.40;99.90;;;;;;4975423;28;20128;-50
2023/12/15 04:41:23;;;;;;;6.00;3.75;;;21.40;99.90;;;;;;4975275;28;20070;-50
2023/12/15 04:43:49;;;;;;;4.97;3.80;;;21.40;99.90;;;;;;4975356;28;20446;-50
2023/12/15 04:46:26;;;;;;;4.80;3.67;;;21.40;99.90;;;;;;4975196;28;20026;-50
2023/12/15 04:48:53;;;;;;;3.88;3.33;;;21.40;99.90;;;;;;4975106;28;20117;-50
2023/12/15 04:51:19;;;;;;;3.63;3.15;;;21.40;99.90;;;;;;4974046;28;20066;-51
2023/12/15 04:53:46;;;;;;;4.88;3.90;;;21.40;99.90;;;;;;4974676;28;20062;-50
2023/12/15 04:56:12;;;;;;;4.60;3.63;;;21.40;99.90;;;;;;4973446;28;20049;-50
2023/12/15 04:58:38;;;;;;;5.18;3.40;;;21.30;99.90;;;;;;4973078;28;20396;-50
2023/12/15 05:01:04;;;;;;;4.82;3.22;;;21.30;99.90;;;;;;4974068;28;20050;-50
2023/12/15 05:03:31;;;;;;;3.97;3.20;;;21.30;99.90;;;;;;4974004;28;20023;-50
2023/12/15 05:05:57;;;;;;;4.82;3.65;;;21.30;99.90;;;;;;4974736;28;20035;-50
2023/12/15 05:08:23;;;;;;;5.55;3.88;;;21.30;99.90;;;;;;4974813;28;20030;-50
2023/12/15 05:10:49;;;;;;;4.00;3.20;;;21.30;99.90;;;;;;4974838;28;20382;-51
2023/12/15 05:13:14;;;;;;;4.80;3.30;;;21.30;99.90;;;;;;4974776;28;20034;-50
2023/12/15 05:15:40;;;;;;;4.90;3.72;;;21.30;99.90;;;;;;4975097;28;20023;-50
2023/12/15 05:18:06;;;;;;;4.85;3.70;;;21.30;99.90;;;;;;4974585;28;20071;-51
2023/12/15 05:20:36;;;;;;;4.35;3.60;;;21.30;99.90;;;;;;4974519;28;20042;-50
2023/12/15 05:23:03;;;;;;;4.93;3.55;;;21.30;99.90;;;;;;4974533;28;20025;-50
2023/12/15 05:25:29;;;;;;;5.73;4.00;;;21.30;99.90;;;;;;4974379;28;20078;-50
2023/12/15 05:27:55;;;;;;;4.57;3.17;;;21.30;99.90;;;;;;4974267;28;20502;-50
2023/12/15 05:30:20;;;;;;;5.07;3.90;;;21.20;99.90;;;;;;4974216;28;20031;-50
2023/12/15 05:32:46;;;;;;;4.22;3.38;;;21.20;99.90;;;;;;4974645;28;20041;-50
2023/12/15 05:35:12;;;;;;;5.55;3.83;;;21.20;99.90;;;;;;4974705;28;20380;-51
2023/12/15 05:37:38;;;;;;;5.13;3.58;;;21.20;99.90;;;;;;4974368;28;20027;-50
2023/12/15 05:40:04;;;;;;;4.68;3.50;;;21.20;99.90;;;;;;4974183;28;20376;-50
2023/12/15 05:42:30;;;;;;;5.75;3.97;;;21.20;99.90;;;;;;4974092;28;20034;-50
2023/12/15 05:44:56;;;;;;;7.00;4.03;;;21.20;99.90;;;;;;4974125;28;20357;-50
2023/12/15 05:47:22;;;;;;;4.53;3.15;;;21.20;99.90;;;;;;4974209;28;20448;-50
2023/12/15 05:49:48;;;;;;;6.68;3.30;;;21.20;99.90;;;;;;4974089;28;20023;-50
2023/12/15 05:52:14;;;;;;;4.97;3.45;;;21.20;99.90;;;;;;4974271;28;20027;-51
2023/12/15 05:54:41;;;;;;;3.80;2.95;;;21.20;99.90;;;;;;4973841;28;20018;-50
2023/12/15 05:57:07;;;;;;;6.95;3.20;;;21.20;99.90;;;;;;4973789;28;20027;-50
2023/12/15 05:59:32;;;;;;;5.35;3.22;;;21.10;99.90;;;;;;4988930;28;20446;-50
2023/12/15 06:01:58;;;;;;;5.18;3.15;;;21.10;99.90;;;;;;4972745;28;20046;-50
2023/12/15 06:04:24;;;;;;;4.22;3.15;;;21.10;99.90;;;;;;4973867;28;20022;-50
2023/12/15 06:06:50;;;;;;;4.63;3.40;;;21.10;99.90;;;;;;4973412;28;20053;-50
2023/12/15 06:09:16;;;;;;;7.25;3.92;;;21.10;99.90;;;;;;4973288;28;20031;-50
2023/12/15 06:11:43;;;;;;;5.18;3.35;;;21.10;99.90;;;;;;4973378;28;20026;-50
2023/12/15 06:14:09;;;;;;;6.65;3.40;;;21.10;99.90;;;;;;4973148;28;20061;-50
2023/12/15 06:16:35;;;;;;;3.75;2.95;;;21.10;99.90;;;;;;4973638;28;20023;-51
2023/12/15 06:19:02;;;;;;;5.20;3.10;;;21.10;99.90;;;;;;4973592;28;20105;-51
2023/12/15 06:21:28;;;;;;;5.10;3.13;;;21.10;99.90;;;;;;4973531;28;20399;-50
2023/12/15 06:23:54;;;;;;;5.65;3.28;;;21.00;99.90;;;;;;4973706;28;20475;-51
2023/12/15 06:26:21;;;;;;;8.25;3.13;;;21.00;99.90;;;;;;4972183;28;20495;-50
2023/12/15 06:28:48;;;;;;;5.72;2.80;;;21.00;99.90;;;;;;4973615;28;20109;-50
2023/12/15 06:31:14;;;;;;;6.95;3.20;;;21.00;99.90;;;;;;4973311;28;20081;-50
2023/12/15 06:33:40;;;;;;;3.85;2.92;;;21.00;99.90;;;;;;4973305;28;20077;-50
2023/12/15 06:36:07;;;;;;;8.73;3.20;;;21.00;99.90;;;;;;4973414;28;20034;-51
2023/12/15 06:38:35;;;;;;;4.32;2.90;;;21.00;99.90;;;;;;4973446;28;20093;-50
2023/12/15 06:41:01;;;;;;;;;;;21.00;99.90;;;;;;4973599;28;20093;-50
2023/12/15 06:43:27;;;;;;;6.50;2.90;;;20.90;99.90;;;;;;4973475;28;19906;-50
2023/12/15 06:45:53;;;;;;;7.68;2.88;;;21.00;99.90;;;;;;4973110;28;20031;-50
2023/12/15 06:48:18;;;;;;;7.47;3.00;;;21.00;99.90;;;;;;4991749;28;20022;-51
2023/12/15 06:50:44;;;;;;;6.00;3.00;;;20.90;99.90;;;;;;5007696;28;20052;-49
2023/12/15 06:53:10;;;;;;;4.75;2.80;;;20.90;99.90;;;;;;4992587;28;20364;-50
2023/12/15 06:55:36;;;;;;;7.25;3.45;;;20.90;99.90;;;;;;4992474;28;20045;-50
2023/12/15 06:58:02;;;;;;;5.00;2.92;;;20.90;99.90;;;;;;4991261;28;20026;-50
2023/12/15 07:00:27;;;;;;;15.15;3.00;;;20.90;99.90;;;;;;4975458;28;20050;-50
2023/12/15 07:02:53;;;;;;;5.07;2.38;;;20.90;99.90;;;;;;4968956;28;20109;-50
2023/12/15 07:05:19;;;;;;;8.73;2.97;;;20.90;99.90;;;;;;4971192;28;20459;-51
2023/12/15 07:07:45;;;;;;;9.60;3.28;;;20.90;99.90;;;;;;4971475;28;20498;-50
2023/12/15 07:10:11;;;;;;;6.97;2.72;;;20.90;99.90;;;;;;4970863;28;20137;-51
2023/12/15 07:12:36;;;;;;;9.20;2.72;;;20.90;99.90;;;;;;4972342;28;20030;-50
2023/12/15 07:15:02;;;;;;;8.27;2.75;;;20.90;99.90;;;;;;4972530;28;20483;-51
2023/12/15 07:17:28;;;;;;;7.20;2.92;;;20.90;99.90;;;;;;4972882;28;20030;-51
2023/12/15 07:19:54;;;;;;;8.48;2.83;;;20.80;99.90;;;;;;4972873;28;20574;-51
2023/12/15 07:22:20;;;;;;;7.75;2.78;;;20.90;99.90;;;;;;4971938;28;20027;-50
2023/12/15 07:24:45;;;;;;;6.00;2.08;;;20.80;99.90;;;;;;4975035;28;20054;-50
2023/12/15 07:27:11;;;;;;;7.03;2.88;;;20.90;99.90;;;;;;4976355;28;20027;-50
2023/12/15 07:29:37;;;;;;;4.60;2.20;;;20.80;99.90;;;;;;4976683;28;20029;-50
2023/12/15 07:32:03;;;;;;;6.25;2.55;;;20.80;99.90;;;;;;4976613;28;20018;-49
2023/12/15 07:34:29;;;;;;;5.40;2.80;;;20.90;99.90;;;;;;4976532;28;20073;-50
2023/12/15 07:36:54;;;;;;;6.93;3.10;;;20.80;99.90;;;;;;4976410;28;20484;-50
2023/12/15 07:39:21;;;;;;;4.78;2.67;;;20.80;99.90;;;;;;4976697;28;20037;-50
2023/12/15 07:41:50;;;;;;;5.80;2.50;;;20.80;99.90;;;;;;4976473;28;20031;-50
2023/12/15 07:44:16;;;;;;;4.38;2.70;;;20.80;99.90;;;;;;4976426;28;20054;-49
2023/12/15 07:46:43;;;;;;;4.65;2.15;;;20.80;99.90;;;;;;4976288;28;20364;-49
2023/12/15 07:49:10;;;;;;;10.15;2.60;;;20.80;99.90;;;;;;4976237;28;20035;-50
2023/12/15 07:51:36;;;;;;;5.20;2.63;;;20.90;99.90;;;;;;4976210;28;20095;-50
2023/12/15 07:54:02;;;;;;;5.40;2.08;;;20.80;99.90;;;;;;4976452;28;20027;-50
2023/12/15 07:56:29;;;;;;;6.85;2.58;;;20.90;99.90;;;;;;4976132;28;20030;-51
2023/12/15 07:58:56;;;;;;;4.18;2.35;;;20.90;99.90;;;;;;4976217;28;20027;-51
2023/12/15 08:01:23;;;;;;;4.15;2.08;;;20.90;99.90;;;;;;4975981;28;20046;-49
2023/12/15 08:03:52;;;;;;;4.60;2.45;;;20.90;99.90;;;;;;4976042;28;20023;-49
2023/12/15 08:06:18;;;;;;;6.82;2.60;;;20.90;99.90;;;;;;4976037;28;20125;-49
2023/12/15 08:08:47;;;;;;;8.32;2.67;;;20.90;99.90;;;;;;4975941;28;20436;-50
2023/12/15 08:11:13;;;;;;;8.27;2.83;;;21.00;99.90;;;;;;4975944;28;20464;-50
2023/12/15 08:13:41;;;;;;;8.55;1.90;;;21.00;99.90;;;;;;4975720;28;20050;-50
2023/12/15 08:16:08;;;;;;;5.93;2.50;;;21.00;99.90;;;;;;4976017;28;20437;-50
2023/12/15 08:18:34;;;;;;;6.40;2.95;;;21.00;99.90;;;;;;4975767;28;20030;-50
2023/12/15 08:21:01;;;;;;;3.80;2.35;;;21.10;99.90;;;;;;4975584;28;20043;-50
2023/12/15 08:23:27;;;;;;;3.20;2.50;;;21.00;99.90;;;;;;4975675;28;20023;-50
2023/12/15 08:25:53;;;;;;;3.50;2.00;;;21.10;99.90;;;;;;4975792;28;20050;-50
2023/12/15 08:28:20;;;;;;;6.38;2.60;;;21.10;99.90;;;;;;4974263;28;20030;-49
2023/12/15 08:30:49;;;;;;;3.42;2.20;;;21.20;99.90;;;;;;4975509;28;20534;-49
2023/12/15 08:33:16;;;;;;;2.47;2.08;;;21.20;99.90;;;;;;4975358;28;20101;-49
2023/12/15 08:35:42;;;;;;;4.22;2.17;;;21.20;99.90;;;;;;4974484;28;20360;-50
2023/12/15 08:38:08;;;;;;;7.32;2.35;;;21.20;99.90;;;;;;4975412;28;20034;-49
2023/12/15 08:40:34;;;;;;;4.00;2.15;;;21.30;99.90;;;;;;4975242;28;20043;-49
2023/12/15 08:42:59;;;;;;;4.88;2.90;;;21.30;99.90;;;;;;4975314;28;20037;-49
2023/12/15 08:45:25;;;;;;;5.25;2.40;;;21.30;99.90;;;;;;4975397;28;20031;-49
2023/12/15 08:47:51;;;;;;;3.75;2.42;;;21.40;99.90;;;;;;4975162;28;20082;-49
2023/12/15 08:50:17;;;;;;;4.72;2.50;;;21.30;99.90;;;;;;4975327;28;20027;-50
2023/12/15 08:52:43;;;;;;;5.82;2.30;;;21.40;99.90;;;;;;4975082;28;20097;-49
2023/12/15 08:55:10;;;;;;;5.60;2.50;;;21.40;99.90;;;;;;4975172;28;20015;-50
2023/12/15 08:57:36;;;;;;;4.75;2.28;;;21.40;99.90;;;;;;4975130;28;20443;-50
2023/12/15 09:00:04;;;;;;;5.95;2.75;;;21.40;99.90;;;;;;4974957;28;20065;-49
2023/12/15 09:02:30;;;;;;;4.57;2.47;;;21.50;99.90;;;;;;4974737;28;20517;-50
2023/12/15 09:04:57;;;;;;;3.90;2.63;;;21.50;99.90;;;;;;4975057;28;20510;-50
2023/12/15 09:07:23;;;;;;;3.47;2.17;;;21.50;99.90;;;;;;4974931;28;20053;-50
2023/12/15 09:09:49;;;;;;;4.05;2.35;;;21.50;99.90;;;;;;4974793;28;20070;-49
2023/12/15 09:12:15;;;;;;;2.95;2.13;;;21.60;99.90;;;;;;4974656;28;20031;-49
2023/12/15 09:14:40;;;;;;;5.22;2.80;;;21.60;99.90;;;;;;4974585;28;20031;-49
2023/12/15 09:17:13;;;;;;;4.63;2.80;;;21.70;99.90;;;;;;4973392;28;20041;-50
2023/12/15 09:19:40;;;;;;;3.38;2.50;;;21.70;99.90;;;;;;4974640;28;20159;-50
2023/12/15 09:22:06;;;;;;;4.75;2.95;;;21.70;99.90;;;;;;4974636;28;20078;-50
2023/12/15 09:24:33;;;;;;;3.83;2.38;;;21.70;99.90;;;;;;4974575;28;20101;-50
2023/12/15 09:26:59;;;;;;;5.43;3.10;;;21.80;99.90;;;;;;4974517;28;20029;-50
2023/12/15 09:29:25;;;;;;;3.78;2.88;;;21.80;99.90;;;;;;4974645;28;20110;-51
2023/12/15 09:31:51;;;;;;;6.80;2.85;;;21.80;99.90;;;;;;4973152;28;20173;-50
2023/12/15 09:34:17;;;;;;;4.65;2.67;;;21.80;99.90;;;;;;4974383;28;20037;-50
2023/12/15 09:36:43;;;;;;;5.38;2.80;;;21.90;99.90;;;;;;4974197;28;20023;-50
2023/12/15 09:39:09;;;;;;;5.65;3.47;;;21.90;99.90;;;;;;4974364;28;20110;-50
2023/12/15 09:41:35;;;;;;;3.25;2.45;;;21.90;99.90;;;;;;4974239;28;20038;-50
2023/12/15 09:44:01;;;;;;;4.80;2.95;;;22.00;99.90;;;;;;4974227;28;20023;-50
2023/12/15 09:46:28;;;;;;;5.90;3.17;;;22.00;99.90;;;;;;4972849;28;20019;-50
2023/12/15 09:48:53;;;;;;;4.80;2.83;;;22.00;99.90;;;;;;4974093;28;20074;-50
2023/12/15 09:51:25;;;;;;;9.00;3.38;;;22.10;99.90;;;;;;4972941;28;20030;-50
2023/12/15 09:53:52;;;;;;;9.48;3.72;;;22.10;99.90;;;;;;4973949;28;20428;-49
2023/12/15 09:56:18;;;;;;;5.43;3.67;;;22.10;99.90;;;;;;4973974;28;20031;-49
2023/12/15 09:58:44;;;;;;;5.95;3.08;;;22.20;99.90;;;;;;4973816;28;20031;-49
2023/12/15 10:01:11;;;;;;;6.35;3.75;;;22.20;99.90;;;;;;4973545;28;20074;-50
2023/12/15 10:03:38;;;;;;;7.00;3.05;;;22.20;99.90;;;;;;4973878;28;20034;-49
2023/12/15 10:06:04;;;;;;;5.95;2.72;;;22.20;99.90;;;;;;4973907;28;20026;-49
2023/12/15 10:08:40;;;;;;;4.88;2.83;;;22.30;99.90;;;;;;4974062;28;20038;-50
2023/12/15 10:11:07;;;;;;;4.88;2.75;;;22.40;99.90;;;;;;4973771;28;20034;-49
2023/12/15 10:13:33;;;;;;;5.90;3.13;;;22.40;99.90;;;;;;4973890;28;20126;-49
2023/12/15 10:15:59;;;;;;;4.82;2.90;;;22.50;99.90;;;;;;4973873;28;20035;-49
2023/12/15 10:18:24;;;;;;;6.90;2.78;;;22.50;99.90;;;;;;4973841;28;20091;-50
2023/12/15 10:20:50;;;;;;;4.18;2.70;;;22.60;99.90;;;;;;4973574;28;20043;-50
2023/12/15 10:23:29;;;;;;;5.78;2.97;;;22.60;99.90;;;;;;4973522;28;20105;-50
2023/12/15 10:25:59;;;;;;;3.42;2.45;;;22.70;99.90;;;;;;4973591;28;20468;-51
2023/12/15 10:28:25;;;;;;;5.13;2.90;;;22.70;99.90;;;;;;4973485;28;20476;-51
2023/12/15 10:30:51;;;;;;;6.07;3.05;;;22.80;99.90;;;;;;4973482;28;20414;-50
2023/12/15 10:33:21;;;;;;;6.35;2.92;;;22.80;99.90;;;;;;4973501;28;20439;-51
2023/12/15 10:35:47;;;;;;;5.55;3.22;;;22.90;99.90;;;;;;4973466;28;20114;-51
2023/12/15 10:38:14;;;;;;;6.88;3.30;;;22.90;99.90;;;;;;4973447;28;20019;-51
2023/12/15 10:40:43;;;;;;;5.70;3.38;;;23.00;99.90;;;;;;4973307;28;20479;-51
2023/12/15 10:43:13;;;;;;;7.55;3.22;;;23.00;99.90;;;;;;4973237;28;20448;-51
2023/12/15 10:45:39;;;;;;;6.35;3.38;;;23.10;99.90;;;;;;4973417;28;20054;-51
2023/12/15 10:48:07;;;;;;;5.55;3.10;;;23.10;99.90;;;;;;4973357;28;20054;-51
2023/12/15 10:50:34;;;;;;;6.72;3.40;;;23.20;99.90;;;;;;4973456;28;20037;-51
2023/12/15 10:53:02;;;;;;;5.17;3.50;;;23.20;99.90;;;;;;4973486;28;20521;-50
2023/12/15 10:55:29;;;;;;;4.72;3.25;;;23.20;99.90;;;;;;4973192;28;20264;-50
2023/12/15 10:58:00;;;;;;;7.38;3.53;;;23.30;99.90;;;;;;4973260;28;20118;-51
2023/12/15 11:00:25;;;;;;;7.15;3.60;;;23.30;99.90;;;;;;4976537;28;20109;-50
2023/12/15 11:02:53;;;;;;;6.10;3.55;;;23.40;99.90;;;;;;4977133;28;20499;-51
2023/12/15 11:05:19;;;;;;;7.70;3.97;;;23.40;99.90;;;;;;4977087;28;20361;-51
2023/12/15 11:07:44;;;;;;;6.95;3.40;;;23.40;99.90;;;;;;4975840;28;20813;-51
2023/12/15 11:10:12;;;;;;;5.55;3.35;;;23.50;99.90;;;;;;4976902;28;20091;-51
2023/12/15 11:12:39;;;;;;;6.20;4.00;;;23.50;99.90;;;;;;4976944;28;20368;-51
2023/12/15 11:15:20;;;;;;;6.55;3.38;;;23.50;99.90;;;;;;4977293;28;20019;-50
2023/12/15 11:17:53;;;;;;;11.20;4.35;;;23.50;99.90;;;;;;4975545;28;20043;-50
2023/12/15 11:20:26;;;;;;;6.35;3.05;;;23.60;99.90;;;;;;4976656;28;20027;-50
2023/12/15 11:22:59;;;;;;;6.78;3.63;;;23.60;99.90;;;;;;4976578;28;20379;-50
2023/12/15 11:25:29;;;;;;;7.95;3.78;;;23.70;99.90;;;;;;4976593;28;20110;-50
2023/12/15 11:28:09;;;;;;;7.53;3.63;;;23.70;99.90;;;;;;4975328;28;20074;-50
2023/12/15 11:30:40;;;;;;;6.60;3.58;;;23.70;99.90;;;;;;4976553;28;20050;-50
2023/12/15 11:33:24;;;;;;;6.72;3.33;;;23.80;99.90;;;;;;4976548;28;20050;-50
2023/12/15 11:36:05;;;;;;;7.13;3.83;;;23.80;99.90;;;;;;4976423;28;20037;-50
2023/12/15 11:38:31;;;;;;;6.53;3.38;;;23.80;99.90;;;;;;4976700;28;20026;-50
2023/12/15 11:40:58;;;;;;;9.93;4.68;;;23.90;99.90;;;;;;4976226;28;20057;-50
2023/12/15 11:43:24;;;;;;;7.20;3.75;;;23.80;99.90;;;;;;4976464;28;20384;-51
2023/12/15 11:45:52;;;;;;;10.13;3.72;;;23.90;99.90;;;;;;4976363;28;20027;-51
2023/12/15 11:48:18;;;;;;;8.93;3.53;;;23.90;99.90;;;;;;4976195;28;20019;-51
2023/12/15 11:50:45;;;;;;;7.18;3.50;;;24.00;99.90;;;;;;4976259;28;20046;-51
2023/12/15 11:53:14;;;;;;;7.23;2.90;;;24.00;99.90;;;;;;4974873;28;20054;-50
2023/12/15 11:55:41;;;;;;;6.43;3.63;;;24.00;99.90;;;;;;4976194;28;20343;-50
2023/12/15 11:58:07;;;;;;;7.53;3.47;;;24.00;99.90;;;;;;4976020;28;20158;-51
2023/12/15 12:00:33;;;;;;;7.35;3.63;;;24.10;99.90;;;;;;4975986;28;20125;-50
2023/12/15 12:03:00;;;;;;;8.40;3.05;;;24.10;99.90;;;;;;4975977;28;20435;-51
2023/12/15 12:05:29;;;;;;;7.60;4.10;;;24.10;99.90;;;;;;4975989;28;20109;-51
2023/12/15 12:08:01;;;;;;;7.53;3.55;;;24.10;99.90;;;;;;4975913;28;20027;-52
2023/12/15 12:10:36;;;;;;;8.07;4.47;;;24.20;99.90;;;;;;4975705;28;20023;-51
2023/12/15 12:13:05;;;;;;;7.15;3.60;;;24.20;99.90;;;;;;4975794;28;20384;-51
2023/12/15 12:15:30;;;;;;;10.45;4.88;;;24.20;99.90;;;;;;4975715;28;20114;-51
2023/12/15 12:17:56;;;;;;;7.68;3.90;;;24.20;99.90;;;;;;4974443;28;20141;-51
2023/12/15 12:20:28;;;;;;;9.50;5.35;;;24.30;99.90;;;;;;4975653;28;20033;-51
2023/12/15 12:22:55;;;;;;;15.43;6.15;;;24.30;99.90;;;;;;4975697;28;20126;-51
2023/12/15 12:25:21;;;;;;;15.02;7.68;;;24.30;99.90;;;;;;4975503;28;20119;-51
2023/12/15 12:27:46;;;;;;;13.38;7.63;;;24.30;99.90;;;;;;4974302;28;20101;-51
2023/12/15 12:30:14;;;;;;;21.15;8.48;;;24.40;99.90;;;;;;4975479;28;20030;-51
2023/12/15 12:32:40;;;;;;;17.27;9.23;;;24.40;99.90;;;;;;4975513;28;20065;-51
2023/12/15 12:35:07;;;;;;;14.18;9.27;;;24.40;99.90;;;;;;4975564;28;20035;-51
2023/12/15 12:37:34;;;;;;;14.85;9.48;;;24.50;99.90;;;;;;4975420;28;20371;-51
2023/12/15 12:40:04;;;;;;;16.88;10.88;;;24.50;99.90;;;;;;4975292;28;20074;-51
2023/12/15 12:42:38;;;;;;;18.48;10.07;;;24.50;99.90;;;;;;4975241;28;20175;-52
2023/12/15 12:45:06;;;;;;;15.35;10.07;;;24.50;99.90;;;;;;4975421;28;20019;-51